Accueil
METAR-TAF:

METAR-TAF

Aéroports :

Aéroport régional Les Éplatures

La Chaux-de-Fonds, Suisse

latitude: 47-05-03N, longitude: 006-47-37E, altitude: 1027 m

Observation

Le bulletin a été fait il y a 39 minutes, à 18:50 UTC
Vent 3 kt de direction variable
Température 10°C
Humidité 66%
Pression 1018 hPa
Visibilité 10 km ou plus

METAR: LSGC 121850Z AUTO VRB03KT 9999 NCD 10/04 Q1018

Heure: 21:29 (19:29 UTC)

Prévision

Le bulletin a été fait il y a 5 heures et 4 minutes, à 14:25 UTC
Prévision valable du 12 à 15 UTC au 12 à 24 UTC
Vent 6 kt de nord-est
Visibilité 10 km ou plus
Nuages fragmentés à une hauteur de 4500 ft

TAF: LSGC 121425Z 1215/1224 04006KT 9999 BKN045

Observations et prévisions météorologiques de plus de 4000 aéroports (messages METAR et TAF).

Les stations disponibles sont représentées par des disques jaunes et rouges sur la carte.

Passer la souris dessus pour voir le nom de la station.

Cliquer dessus pour voir les observations et prévisions météorologiques.

Pour changer de carte: cliquez sur les boutons verts avec une croix noire pour zoomer, sur le bouton vert avec un tiret pour effectuer un zoom arrière, ou sur les flèches vertes pour les cartes adjacentes.


METAR-TAF: